Time;durP1;ratioP1;P1;durP2;ratioP2;P2;SDS_P1;SDS_P2;PMS_P1;PMS_P2;Temp;Humidity;BMP_temperature;BMP_pressure;BME280_temperature;BME280_humidity;BME280_pressure;Samples;Min_cycle;Max_cycle;Signal;HPM_P1;HPM_P2
2023/05/07 00:01:51;;;;;;;3.20;1.20;;;;;;;;;;5062407;28;20473;-69
2023/05/07 00:04:20;;;;;;;2.63;2.25;;;;;;;;;;5065276;28;20338;-69
2023/05/07 00:06:49;;;;;;;2.00;1.45;;;;;;;;;;5053395;28;20056;-70
2023/05/07 00:09:18;;;;;;;3.33;1.50;;;;;;;;;;5061045;28;21397;-69
2023/05/07 00:11:47;;;;;;;3.80;1.60;;;;;;;;;;5061014;28;20051;-69
2023/05/07 00:14:16;;;;;;;7.88;1.50;;;;;;;;;;5063783;28;20075;-69
2023/05/07 00:16:44;;;;;;;3.85;1.13;;;;;;;;;;5055495;28;20056;-69
2023/05/07 00:19:12;;;;;;;2.42;1.35;;;;;;;;;;5063650;28;20451;-70
2023/05/07 00:21:41;;;;;;;5.80;1.50;;;;;;;;;;5059612;28;20143;-70
2023/05/07 00:24:10;;;;;;;3.60;1.63;;;;;;;;;;5061139;28;20036;-69
2023/05/07 00:26:38;;;;;;;6.05;1.95;;;;;;;;;;5061114;28;20056;-69
2023/05/07 00:29:08;;;;;;;3.45;1.50;;;;;;;;;;5062752;28;20079;-71
2023/05/07 00:31:36;;;;;;;3.83;1.50;;;;;;;;;;5060413;28;20906;-71
2023/05/07 00:34:05;;;;;;;1.38;1.05;;;;;;;;;;5060423;28;20061;-70
2023/05/07 00:36:34;;;;;;;3.25;1.58;;;;;;;;;;5057473;28;20059;-71
2023/05/07 00:39:03;;;;;;;3.40;1.50;;;;;;;;;;5063435;28;20377;-69
2023/05/07 00:41:31;;;;;;;6.80;1.50;;;;;;;;;;5060074;28;20152;-69
2023/05/07 00:44:02;;;;;;;3.15;1.88;;;;;;;;;;5060051;28;20068;-69
2023/05/07 00:46:32;;;;;;;2.13;1.50;;;;;;;;;;5057432;28;20062;-69
2023/05/07 00:49:01;;;;;;;4.15;1.85;;;;;;;;;;5059972;28;20545;-68
2023/05/07 00:51:30;;;;;;;3.83;1.75;;;;;;;;;;5063392;28;20409;-69
2023/05/07 00:53:58;;;;;;;5.00;1.70;;;;;;;;;;5058997;28;20044;-69
2023/05/07 00:56:26;;;;;;;3.90;1.50;;;;;;;;;;5058756;28;20048;-69
2023/05/07 00:58:55;;;;;;;3.38;1.58;;;;;;;;;;5059998;28;20485;-68
2023/05/07 01:01:23;;;;;;;3.00;1.90;;;;;;;;;;5059092;28;20041;-69
2023/05/07 01:03:53;;;;;;;2.88;1.83;;;;;;;;;;5059129;28;20052;-68
2023/05/07 01:06:23;;;;;;;2.30;1.85;;;;;;;;;;5057153;28;20053;-69
2023/05/07 01:08:52;;;;;;;4.40;1.80;;;;;;;;;;5062010;28;20078;-69
2023/05/07 01:11:21;;;;;;;5.15;1.73;;;;;;;;;;5063060;28;20080;-69
2023/05/07 01:13:50;;;;;;;3.97;1.73;;;;;;;;;;5065055;28;20059;-69
2023/05/07 01:16:19;;;;;;;3.60;2.45;;;;;;;;;;5065865;28;20528;-69
2023/05/07 01:18:48;;;;;;;1.58;1.00;;;;;;;;;;5064710;28;20052;-69
2023/05/07 01:21:19;;;;;;;6.32;2.38;;;;;;;;;;5065291;28;20045;-69
2023/05/07 01:23:49;;;;;;;4.53;2.05;;;;;;;;;;5061327;28;21081;-69
2023/05/07 01:26:19;;;;;;;2.42;1.63;;;;;;;;;;5063112;28;20051;-69
2023/05/07 01:28:47;;;;;;;2.28;1.52;;;;;;;;;;5063769;28;20046;-69
2023/05/07 01:31:17;;;;;;;2.55;1.65;;;;;;;;;;5061727;28;20044;-69
2023/05/07 01:33:46;;;;;;;2.88;1.92;;;;;;;;;;5065633;28;20560;-69
2023/05/07 01:36:15;;;;;;;6.18;2.20;;;;;;;;;;5061852;28;20044;-69
2023/05/07 01:38:43;;;;;;;3.30;1.48;;;;;;;;;;5065373;28;20124;-69
2023/05/07 01:41:13;;;;;;;4.00;1.65;;;;;;;;;;5061620;28;20481;-69
2023/05/07 01:43:42;;;;;;;2.53;1.50;;;;;;;;;;5066379;28;20059;-69
2023/05/07 01:46:10;;;;;;;4.72;2.17;;;;;;;;;;5064297;28;21513;-69
2023/05/07 01:48:39;;;;;;;3.55;2.10;;;;;;;;;;5066167;28;20048;-69
2023/05/07 01:51:07;;;;;;;2.40;1.38;;;;;;;;;;5062922;28;20106;-69
2023/05/07 01:53:37;;;;;;;3.60;1.50;;;;;;;;;;5064972;28;20493;-68
2023/05/07 01:56:06;;;;;;;2.35;1.48;;;;;;;;;;5062972;28;20056;-68
2023/05/07 01:58:35;;;;;;;3.28;1.60;;;;;;;;;;5064261;28;20103;-69
2023/05/07 02:01:04;;;;;;;8.10;2.80;;;;;;;;;;5063241;28;20079;-69
2023/05/07 02:03:32;;;;;;;2.55;1.38;;;;;;;;;;5059485;28;20052;-69
2023/05/07 02:06:01;;;;;;;3.33;2.05;;;;;;;;;;5062271;28;20091;-68
2023/05/07 02:08:29;;;;;;;1.92;1.38;;;;;;;;;;5065896;28;20048;-68
2023/05/07 02:10:58;;;;;;;5.30;2.00;;;;;;;;;;5059823;28;20055;-69
2023/05/07 02:13:28;;;;;;;4.35;1.63;;;;;;;;;;5062257;28;20044;-69
2023/05/07 02:15:58;;;;;;;2.28;1.58;;;;;;;;;;5061388;28;20044;-68
2023/05/07 02:18:26;;;;;;;2.35;1.60;;;;;;;;;;5066118;28;20060;-68
2023/05/07 02:20:54;;;;;;;4.72;1.60;;;;;;;;;;5063694;28;20067;-68
2023/05/07 02:23:23;;;;;;;4.13;1.63;;;;;;;;;;5063445;28;20063;-69
2023/05/07 02:25:51;;;;;;;4.40;1.80;;;;;;;;;;5063368;28;20047;-68
2023/05/07 02:28:20;;;;;;;6.43;1.63;;;;;;;;;;5061586;28;20125;-68
2023/05/07 02:30:48;;;;;;;3.95;2.03;;;;;;;;;;5064752;28;20052;-69
2023/05/07 02:33:18;;;;;;;5.78;2.17;;;;;;;;;;5066677;28;20468;-69
2023/05/07 02:35:46;;;;;;;2.78;1.58;;;;;;;;;;5058057;28;20052;-69
2023/05/07 02:38:14;;;;;;;2.90;1.83;;;;;;;;;;5060677;28;20518;-68
2023/05/07 02:40:43;;;;;;;1.88;1.15;;;;;;;;;;5059989;28;20086;-68
2023/05/07 02:43:11;;;;;;;5.18;1.88;;;;;;;;;;5064315;28;20145;-68
2023/05/07 02:45:39;;;;;;;2.17;1.25;;;;;;;;;;5062778;28;20528;-69
2023/05/07 02:48:08;;;;;;;2.15;1.60;;;;;;;;;;5062963;28;20249;-68
2023/05/07 02:50:37;;;;;;;2.55;1.77;;;;;;;;;;5061239;28;20044;-69
2023/05/07 02:53:06;;;;;;;3.60;1.90;;;;;;;;;;5065008;28;20665;-69
2023/05/07 02:55:34;;;;;;;5.40;1.42;;;;;;;;;;5062972;28;20051;-70
2023/05/07 02:58:03;;;;;;;4.20;1.80;;;;;;;;;;5060484;28;20056;-69
2023/05/07 03:00:31;;;;;;;2.97;2.08;;;;;;;;;;5062036;28;20051;-69
2023/05/07 03:02:59;;;;;;;8.05;1.73;;;;;;;;;;5061522;28;20041;-68
2023/05/07 03:05:28;;;;;;;2.55;1.50;;;;;;;;;;5057429;28;20051;-68
2023/05/07 03:07:57;;;;;;;2.22;1.27;;;;;;;;;;5064418;28;20497;-69
2023/05/07 03:10:25;;;;;;;2.58;1.23;;;;;;;;;;5061165;28;20063;-69
2023/05/07 03:12:54;;;;;;;11.95;2.10;;;;;;;;;;5064118;28;20135;-69
2023/05/07 03:15:22;;;;;;;3.20;1.60;;;;;;;;;;5059469;28;20059;-68
2023/05/07 03:17:51;;;;;;;2.20;1.48;;;;;;;;;;5061522;28;20059;-68
2023/05/07 03:20:19;;;;;;;3.47;1.63;;;;;;;;;;5059121;28;20153;-69
2023/05/07 03:22:47;;;;;;;6.90;1.02;;;;;;;;;;5061193;28;20048;-69
2023/05/07 03:25:17;;;;;;;4.15;1.90;;;;;;;;;;5060989;28;20560;-68
2023/05/07 03:27:45;;;;;;;1.98;1.10;;;;;;;;;;5059017;28;20749;-68
2023/05/07 03:30:14;;;;;;;2.58;1.40;;;;;;;;;;5060720;28;20143;-69
2023/05/07 03:32:42;;;;;;;3.92;1.63;;;;;;;;;;5059705;28;20406;-69
2023/05/07 03:35:11;;;;;;;0.95;0.73;;;;;;;;;;5059531;28;20044;-68
2023/05/07 03:37:39;;;;;;;3.85;1.60;;;;;;;;;;5059221;28;20489;-68
2023/05/07 03:40:09;;;;;;;2.30;1.35;;;;;;;;;;5063488;28;20047;-68
2023/05/07 03:42:40;;;;;;;2.60;1.30;;;;;;;;;;5063385;28;20076;-69
2023/05/07 03:45:09;;;;;;;3.38;1.85;;;;;;;;;;5059753;28;20055;-69
2023/05/07 03:47:38;;;;;;;2.20;1.30;;;;;;;;;;5060347;28;20054;-68
2023/05/07 03:50:06;;;;;;;2.70;1.48;;;;;;;;;;5060427;28;20040;-68
2023/05/07 03:52:35;;;;;;;2.40;1.75;;;;;;;;;;5061544;28;20413;-68
2023/05/07 03:55:03;;;;;;;3.38;1.92;;;;;;;;;;5059106;28;20052;-69
2023/05/07 03:57:31;;;;;;;3.75;2.53;;;;;;;;;;5059908;28;20049;-69
2023/05/07 04:00:01;;;;;;;2.85;1.50;;;;;;;;;;5060308;28;20051;-69
2023/05/07 04:02:30;;;;;;;2.63;1.75;;;;;;;;;;5060966;28;20056;-69
2023/05/07 04:04:58;;;;;;;3.03;1.42;;;;;;;;;;5060464;28;20521;-68
2023/05/07 04:07:27;;;;;;;4.97;1.40;;;;;;;;;;5059396;28;20048;-69
2023/05/07 04:09:55;;;;;;;2.80;1.60;;;;;;;;;;5062345;28;20040;-68
2023/05/07 04:12:24;;;;;;;3.15;2.22;;;;;;;;;;5061491;28;20047;-69
2023/05/07 04:14:54;;;;;;;6.43;1.63;;;;;;;;;;5060593;28;20049;-68
2023/05/07 04:17:24;;;;;;;2.65;1.27;;;;;;;;;;5059170;28;20051;-69
2023/05/07 04:19:52;;;;;;;3.55;1.35;;;;;;;;;;5059325;28;20044;-69
2023/05/07 04:22:21;;;;;;;2.13;0.95;;;;;;;;;;5058031;28;20036;-68
2023/05/07 04:24:49;;;;;;;1.85;1.17;;;;;;;;;;5063729;28;20151;-69
2023/05/07 04:27:17;;;;;;;2.95;1.35;;;;;;;;;;5060248;28;20493;-69
2023/05/07 04:29:47;;;;;;;3.38;1.52;;;;;;;;;;5061677;28;20055;-69
2023/05/07 04:32:15;;;;;;;3.67;1.83;;;;;;;;;;5058215;28;20044;-70
2023/05/07 04:34:45;;;;;;;0.93;0.77;;;;;;;;;;5057599;28;20044;-69
2023/05/07 04:37:14;;;;;;;3.42;1.77;;;;;;;;;;5062164;28;20051;-69
2023/05/07 04:39:42;;;;;;;4.03;1.55;;;;;;;;;;5062326;28;20055;-70
2023/05/07 04:42:10;;;;;;;1.55;1.27;;;;;;;;;;5061581;28;20053;-70
2023/05/07 04:44:39;;;;;;;2.25;1.30;;;;;;;;;;5061090;28;20059;-70
2023/05/07 04:47:07;;;;;;;2.50;1.48;;;;;;;;;;5066580;28;20504;-72
2023/05/07 04:49:35;;;;;;;1.83;1.55;;;;;;;;;;5061266;28;20719;-69
2023/05/07 04:52:06;;;;;;;1.92;1.13;;;;;;;;;;5065669;28;20048;-69
2023/05/07 04:54:34;;;;;;;2.47;1.25;;;;;;;;;;5063400;28;20390;-69
2023/05/07 04:57:02;;;;;;;2.30;1.08;;;;;;;;;;5062689;28;20048;-69
2023/05/07 04:59:31;;;;;;;2.45;1.27;;;;;;;;;;5065987;28;20046;-69
2023/05/07 05:02:00;;;;;;;2.35;1.30;;;;;;;;;;5061922;28;20171;-69
2023/05/07 05:04:28;;;;;;;3.45;1.10;;;;;;;;;;5067354;28;20140;-69
2023/05/07 05:06:57;;;;;;;1.08;0.98;;;;;;;;;;5062073;28;20610;-69
2023/05/07 05:09:26;;;;;;;2.78;1.20;;;;;;;;;;5065505;28;20053;-69
2023/05/07 05:11:55;;;;;;;4.07;1.77;;;;;;;;;;5065472;28;20063;-69
2023/05/07 05:14:23;;;;;;;2.42;1.27;;;;;;;;;;5062113;28;20045;-69
2023/05/07 05:16:52;;;;;;;4.15;1.48;;;;;;;;;;5066603;28;20079;-69
2023/05/07 05:19:20;;;;;;;1.90;1.02;;;;;;;;;;5062952;28;20413;-69
2023/05/07 05:21:48;;;;;;;3.45;1.73;;;;;;;;;;5061197;28;20041;-69
2023/05/07 05:24:17;;;;;;;4.15;1.50;;;;;;;;;;5065697;28;20043;-69
2023/05/07 05:26:47;;;;;;;2.45;1.25;;;;;;;;;;5065641;28;20078;-69
2023/05/07 05:29:15;;;;;;;1.63;1.20;;;;;;;;;;5062492;28;20122;-68
2023/05/07 05:31:44;;;;;;;1.83;1.20;;;;;;;;;;5061877;28;20057;-68
2023/05/07 05:34:12;;;;;;;1.77;1.52;;;;;;;;;;5063500;28;20044;-69
2023/05/07 05:36:40;;;;;;;1.38;1.00;;;;;;;;;;5061712;28;20048;-69
2023/05/07 05:39:09;;;;;;;2.60;1.27;;;;;;;;;;5065007;28;20040;-69
2023/05/07 05:41:37;;;;;;;1.23;1.08;;;;;;;;;;5064527;28;20049;-69
2023/05/07 05:44:07;;;;;;;1.45;0.90;;;;;;;;;;5063662;28;20687;-68
2023/05/07 05:46:36;;;;;;;5.00;2.53;;;;;;;;;;5060127;28;20420;-69
2023/05/07 05:49:04;;;;;;;4.05;1.40;;;;;;;;;;5064209;28;20052;-69
2023/05/07 05:51:33;;;;;;;0.98;0.90;;;;;;;;;;5063643;28;20049;-69
2023/05/07 05:54:01;;;;;;;4.07;1.45;;;;;;;;;;5066273;28;20490;-69
2023/05/07 05:56:29;;;;;;;1.63;0.90;;;;;;;;;;5060101;28;20495;-70
2023/05/07 05:58:58;;;;;;;1.52;1.23;;;;;;;;;;5065856;28;20374;-69
2023/05/07 06:01:28;;;;;;;3.33;1.30;;;;;;;;;;5065332;28;20053;-69
2023/05/07 06:03:56;;;;;;;2.72;1.33;;;;;;;;;;5060848;28;20061;-69
2023/05/07 06:06:25;;;;;;;2.35;1.30;;;;;;;;;;5058661;28;20045;-68
2023/05/07 06:08:53;;;;;;;2.92;1.40;;;;;;;;;;5062056;28;20049;-68
2023/05/07 06:11:22;;;;;;;1.10;0.90;;;;;;;;;;5061796;28;20501;-68
2023/05/07 06:13:51;;;;;;;1.17;0.77;;;;;;;;;;5066353;28;20054;-69
2023/05/07 06:16:19;;;;;;;4.43;1.65;;;;;;;;;;5061772;28;20056;-69
2023/05/07 06:18:49;;;;;;;2.28;1.00;;;;;;;;;;5064079;28;20049;-68
2023/05/07 06:21:18;;;;;;;8.90;1.20;;;;;;;;;;5062361;28;20148;-70
2023/05/07 06:23:46;;;;;;;1.23;0.98;;;;;;;;;;5062628;28;20171;-68
2023/05/07 06:26:14;;;;;;;2.40;1.30;;;;;;;;;;5062338;28;21395;-70
2023/05/07 06:28:43;;;;;;;3.63;1.40;;;;;;;;;;5059290;28;20139;-70
2023/05/07 06:31:15;;;;;;;1.65;0.98;;;;;;;;;;5062240;28;20132;-70
2023/05/07 06:33:43;;;;;;;1.67;1.05;;;;;;;;;;5056364;28;20049;-70
2023/05/07 06:36:13;;;;;;;1.88;1.15;;;;;;;;;;5060628;28;20061;-69
2023/05/07 06:38:41;;;;;;;0.93;0.70;;;;;;;;;;5059904;28;20048;-70
2023/05/07 06:41:10;;;;;;;1.45;1.30;;;;;;;;;;5060502;28;20044;-69
2023/05/07 06:43:38;;;;;;;1.60;1.10;;;;;;;;;;5058605;28;20052;-69
2023/05/07 06:46:07;;;;;;;3.10;1.67;;;;;;;;;;5058877;28;20048;-69
2023/05/07 06:48:35;;;;;;;1.70;0.90;;;;;;;;;;5056834;28;20052;-69
2023/05/07 06:51:04;;;;;;;3.78;1.40;;;;;;;;;;5059527;28;20056;-69
2023/05/07 06:53:34;;;;;;;3.42;1.20;;;;;;;;;;5061171;28;20041;-69
2023/05/07 06:56:02;;;;;;;2.50;1.00;;;;;;;;;;5062406;28;20052;-69
2023/05/07 06:58:31;;;;;;;3.47;1.65;;;;;;;;;;5061615;28;20049;-69
2023/05/07 07:01:00;;;;;;;1.67;1.38;;;;;;;;;;5061161;28;20425;-69
2023/05/07 07:03:28;;;;;;;2.67;1.88;;;;;;;;;;5059317;28;20139;-70
2023/05/07 07:05:57;;;;;;;2.47;1.02;;;;;;;;;;5058072;28;20064;-69
2023/05/07 07:08:25;;;;;;;2.30;1.35;;;;;;;;;;5060087;28;20128;-69
2023/05/07 07:10:55;;;;;;;1.17;0.90;;;;;;;;;;5057279;28;20171;-70
2023/05/07 07:13:23;;;;;;;4.93;1.67;;;;;;;;;;5061251;28;20106;-69
2023/05/07 07:15:52;;;;;;;1.33;0.93;;;;;;;;;;5060671;28;20105;-70
2023/05/07 07:18:21;;;;;;;2.08;1.20;;;;;;;;;;5060215;28;20052;-70
2023/05/07 07:20:49;;;;;;;2.63;1.30;;;;;;;;;;5059492;28;20052;-68
2023/05/07 07:23:18;;;;;;;2.25;1.25;;;;;;;;;;5058731;28;20507;-69
2023/05/07 07:25:47;;;;;;;1.00;0.85;;;;;;;;;;5058627;28;20071;-70
2023/05/07 07:28:16;;;;;;;1.38;0.88;;;;;;;;;;5058929;28;20509;-69
2023/05/07 07:30:45;;;;;;;1.38;0.80;;;;;;;;;;5058250;28;20052;-69
2023/05/07 07:33:13;;;;;;;0.60;0.60;;;;;;;;;;5059405;28;20050;-69
2023/05/07 07:35:42;;;;;;;1.20;1.10;;;;;;;;;;5057928;28;20048;-69
2023/05/07 07:38:10;;;;;;;0.88;0.70;;;;;;;;;;5057805;28;20429;-69
2023/05/07 07:40:39;;;;;;;1.75;1.23;;;;;;;;;;5060546;28;20044;-69
2023/05/07 07:43:07;;;;;;;1.55;1.05;;;;;;;;;;5057224;28;20045;-69
2023/05/07 07:45:37;;;;;;;1.88;0.95;;;;;;;;;;5056266;28;20068;-69
2023/05/07 07:48:08;;;;;;;1.58;1.20;;;;;;;;;;5056187;28;20717;-68
2023/05/07 07:50:36;;;;;;;1.17;0.95;;;;;;;;;;5059607;28;20610;-69
2023/05/07 07:53:13;;;;;;;5.40;1.40;;;;;;;;;;5059232;28;21041;-69
2023/05/07 07:55:42;;;;;;;1.92;1.10;;;;;;;;;;5060151;28;20375;-71
2023/05/07 07:58:11;;;;;;;2.03;1.08;;;;;;;;;;5059146;28;20445;-69
2023/05/07 08:00:41;;;;;;;2.03;1.08;;;;;;;;;;5063437;28;20044;-70
2023/05/07 08:03:11;;;;;;;2.80;1.30;;;;;;;;;;5062213;28;20455;-69
2023/05/07 08:05:40;;;;;;;1.58;1.02;;;;;;;;;;5058411;28;20586;-71
2023/05/07 08:08:08;;;;;;;1.10;0.88;;;;;;;;;;5059989;28;20327;-70
2023/05/07 08:10:38;;;;;;;4.35;2.00;;;;;;;;;;5064995;28;20056;-68
2023/05/07 08:13:07;;;;;;;3.30;1.30;;;;;;;;;;5061109;28;20101;-69
2023/05/07 08:15:36;;;;;;;1.92;1.15;;;;;;;;;;5057876;28;20048;-68
2023/05/07 08:18:06;;;;;;;1.52;0.82;;;;;;;;;;5063221;28;20068;-68
2023/05/07 08:20:39;;;;;;;1.23;0.95;;;;;;;;;;5058399;28;20153;-69
2023/05/07 08:23:07;;;;;;;2.00;1.30;;;;;;;;;;5061700;28;20052;-69
2023/05/07 08:25:37;;;;;;;1.67;0.93;;;;;;;;;;5058419;28;20500;-69
2023/05/07 08:28:05;;;;;;;1.20;1.10;;;;;;;;;;5060730;28;20036;-69
2023/05/07 08:30:37;;;;;;;1.13;0.90;;;;;;;;;;5061372;28;20060;-70
2023/05/07 08:33:06;;;;;;;1.63;1.13;;;;;;;;;;5063291;28;20048;-70
2023/05/07 08:35:35;;;;;;;3.33;1.10;;;;;;;;;;5063197;28;20052;-69
2023/05/07 08:38:04;;;;;;;0.95;0.88;;;;;;;;;;5061885;28;20045;-69
2023/05/07 08:40:35;;;;;;;2.05;1.10;;;;;;;;;;5063501;28;20130;-70
2023/05/07 08:43:04;;;;;;;1.10;0.70;;;;;;;;;;5069356;28;20118;-71
2023/05/07 08:45:32;;;;;;;4.50;1.42;;;;;;;;;;5066236;28;20044;-70
2023/05/07 08:48:01;;;;;;;1.58;1.05;;;;;;;;;;5063263;28;20132;-72
2023/05/07 08:50:31;;;;;;;1.77;1.05;;;;;;;;;;5064519;28;20291;-72
2023/05/07 08:53:00;;;;;;;1.38;0.88;;;;;;;;;;5061541;28;20064;-72
2023/05/07 08:55:30;;;;;;;0.88;0.80;;;;;;;;;;5062106;28;20044;-69
2023/05/07 08:57:58;;;;;;;1.67;1.17;;;;;;;;;;5056805;28;20128;-71
2023/05/07 09:00:27;;;;;;;1.15;1.05;;;;;;;;;;5067658;28;20424;-70
2023/05/07 09:02:55;;;;;;;1.67;1.10;;;;;;;;;;5066682;28;20048;-70
2023/05/07 09:05:24;;;;;;;2.40;1.25;;;;;;;;;;5059639;28;20121;-70
2023/05/07 09:07:55;;;;;;;1.33;1.05;;;;;;;;;;5070050;28;20045;-70
2023/05/07 09:10:25;;;;;;;1.50;1.00;;;;;;;;;;5070300;28;20106;-70
2023/05/07 09:12:54;;;;;;;2.72;1.20;;;;;;;;;;5069767;28;20140;-70
2023/05/07 09:15:22;;;;;;;2.00;1.10;;;;;;;;;;5068822;28;20060;-70
2023/05/07 09:17:51;;;;;;;1.73;1.20;;;;;;;;;;5065456;28;20096;-71
2023/05/07 09:20:19;;;;;;;1.33;1.05;;;;;;;;;;5069390;28;20095;-71
2023/05/07 09:22:47;;;;;;;1.83;0.90;;;;;;;;;;5068918;28;20048;-71
2023/05/07 09:25:29;;;;;;;3.58;1.38;;;;;;;;;;5068441;28;20076;-70
2023/05/07 09:27:57;;;;;;;3.05;1.27;;;;;;;;;;5053044;28;20564;-71
2023/05/07 09:30:28;;;;;;;2.17;1.27;;;;;;;;;;5069347;28;20048;-70
2023/05/07 09:32:57;;;;;;;4.22;1.27;;;;;;;;;;5068674;28;20075;-70
2023/05/07 09:35:27;;;;;;;1.27;0.88;;;;;;;;;;5073093;28;20405;-70
2023/05/07 09:37:55;;;;;;;2.70;1.13;;;;;;;;;;5072441;28;20056;-70
2023/05/07 09:40:26;;;;;;;2.65;1.30;;;;;;;;;;5071052;28;20055;-70
2023/05/07 09:42:54;;;;;;;1.33;0.80;;;;;;;;;;5073280;28;20167;-71
2023/05/07 09:45:24;;;;;;;1.98;1.10;;;;;;;;;;5072360;28;20147;-70
2023/05/07 09:47:55;;;;;;;1.02;0.90;;;;;;;;;;5071452;28;20048;-70
2023/05/07 09:50:27;;;;;;;2.50;1.27;;;;;;;;;;5068815;28;20056;-70
2023/05/07 09:52:56;;;;;;;1.70;1.02;;;;;;;;;;5069751;28;20056;-70
2023/05/07 09:55:27;;;;;;;4.03;1.38;;;;;;;;;;5067646;28;20048;-71
2023/05/07 09:57:55;;;;;;;1.48;0.80;;;;;;;;;;5060069;28;20593;-70
2023/05/07 10:00:24;;;;;;;0.63;0.57;;;;;;;;;;5068526;28;20053;-72
2023/05/07 10:02:53;;;;;;;0.57;0.57;;;;;;;;;;5058477;28;20128;-68
2023/05/07 10:05:21;;;;;;;0.85;0.63;;;;;;;;;;5070425;28;20045;-69
2023/05/07 10:07:50;;;;;;;1.02;0.80;;;;;;;;;;5068688;28;20103;-69
2023/05/07 10:10:19;;;;;;;0.95;0.70;;;;;;;;;;5068473;28;20503;-69
2023/05/07 10:12:48;;;;;;;1.50;0.57;;;;;;;;;;5062872;28;20052;-69
2023/05/07 10:15:17;;;;;;;0.98;0.80;;;;;;;;;;5066800;28;20060;-69
2023/05/07 10:17:46;;;;;;;1.00;0.70;;;;;;;;;;5071217;28;20354;-68
2023/05/07 10:20:15;;;;;;;0.57;0.57;;;;;;;;;;5064459;28;20056;-71
2023/05/07 10:22:45;;;;;;;0.77;0.60;;;;;;;;;;5072864;28;20459;-73
2023/05/07 10:25:16;;;;;;;1.30;0.80;;;;;;;;;;5068950;28;20099;-70
2023/05/07 10:27:45;;;;;;;0.93;0.60;;;;;;;;;;5062544;28;20059;-69
2023/05/07 10:30:21;;;;;;;1.67;0.93;;;;;;;;;;5069477;28;20074;-69
2023/05/07 10:32:51;;;;;;;1.13;0.70;;;;;;;;;;5068127;28;20049;-69
2023/05/07 10:35:22;;;;;;;2.83;0.60;;;;;;;;;;5062350;28;20112;-71
2023/05/07 10:37:50;;;;;;;0.88;0.73;;;;;;;;;;5068342;28;20135;-69
2023/05/07 10:40:19;;;;;;;0.77;0.60;;;;;;;;;;5067790;28;20566;-70
2023/05/07 10:42:59;;;;;;;1.50;1.10;;;;;;;;;;5071291;28;20128;-69
2023/05/07 10:45:29;;;;;;;2.30;1.02;;;;;;;;;;5063689;28;20055;-70
2023/05/07 10:48:10;;;;;;;1.17;0.82;;;;;;;;;;5065428;28;20475;-70
2023/05/07 10:51:11;;;;;;;1.02;0.73;;;;;;;;;;5063512;28;20056;-70
2023/05/07 10:53:40;;;;;;;1.48;0.77;;;;;;;;;;5057696;28;20041;-70
2023/05/07 10:56:30;;;;;;;1.10;0.77;;;;;;;;;;5066852;28;20048;-70
2023/05/07 10:59:13;;;;;;;0.65;0.52;;;;;;;;;;5067657;28;20146;-70
2023/05/07 11:01:52;;;;;;;1.30;0.70;;;;;;;;;;5059363;28;20045;-70
2023/05/07 11:04:26;;;;;;;1.60;0.77;;;;;;;;;;5056182;28;20489;-69
2023/05/07 11:07:13;;;;;;;1.33;0.70;;;;;;;;;;5070569;28;20056;-69
2023/05/07 11:09:58;;;;;;;1.40;0.88;;;;;;;;;;5056103;28;20521;-69
2023/05/07 11:12:45;;;;;;;1.98;0.90;;;;;;;;;;5067676;28;20052;-70
2023/05/07 11:15:15;;;;;;;1.05;0.70;;;;;;;;;;5068574;28;20051;-69
2023/05/07 11:18:03;;;;;;;0.60;0.57;;;;;;;;;;5064236;28;20136;-69
2023/05/07 11:20:53;;;;;;;0.95;0.77;;;;;;;;;;5059196;28;20527;-69
2023/05/07 11:23:40;;;;;;;4.38;0.82;;;;;;;;;;5068727;28;20501;-69
2023/05/07 11:26:09;;;;;;;0.98;0.77;;;;;;;;;;5061360;28;20049;-69
2023/05/07 11:28:39;;;;;;;0.80;0.60;;;;;;;;;;5064560;28;20052;-70
2023/05/07 11:31:08;;;;;;;1.20;0.65;;;;;;;;;;5067178;28;20102;-71
2023/05/07 11:33:36;;;;;;;2.03;0.60;;;;;;;;;;5069887;28;20549;-71
2023/05/07 11:36:07;;;;;;;0.82;0.60;;;;;;;;;;5067386;28;20162;-71
2023/05/07 11:38:37;;;;;;;1.75;0.70;;;;;;;;;;5065241;28;20049;-71
2023/05/07 11:41:05;;;;;;;0.55;0.55;;;;;;;;;;5066242;28;20068;-71
2023/05/07 11:43:35;;;;;;;1.90;0.98;;;;;;;;;;5075085;28;20048;-71
2023/05/07 11:46:08;;;;;;;1.33;0.68;;;;;;;;;;5059731;28;20044;-71
2023/05/07 11:48:36;;;;;;;0.98;0.68;;;;;;;;;;5071009;28;20053;-71
2023/05/07 11:51:08;;;;;;;0.75;0.45;;;;;;;;;;5067472;28;20571;-70
2023/05/07 11:53:38;;;;;;;3.70;0.77;;;;;;;;;;5070606;28;20052;-71
2023/05/07 11:56:09;;;;;;;1.25;0.57;;;;;;;;;;5069376;28;20053;-71
2023/05/07 11:58:38;;;;;;;2.47;0.63;;;;;;;;;;5068639;28;20044;-70
2023/05/07 12:01:09;;;;;;;1.02;0.70;;;;;;;;;;5066505;28;20474;-71
2023/05/07 12:03:38;;;;;;;1.13;0.70;;;;;;;;;;5065168;28;20052;-71
2023/05/07 12:06:09;;;;;;;0.70;0.65;;;;;;;;;;5070521;28;20053;-71
2023/05/07 12:08:38;;;;;;;0.63;0.50;;;;;;;;;;5070503;28;20084;-71
2023/05/07 12:11:08;;;;;;;0.47;0.47;;;;;;;;;;5070196;28;20059;-71
2023/05/07 12:13:37;;;;;;;0.85;0.50;;;;;;;;;;5070192;28;20069;-70
2023/05/07 12:16:06;;;;;;;1.48;0.82;;;;;;;;;;5062532;28;20079;-70
2023/05/07 12:18:35;;;;;;;0.60;0.60;;;;;;;;;;5077170;28;20055;-68
2023/05/07 12:21:03;;;;;;;1.58;0.77;;;;;;;;;;5068570;28;20072;-69
2023/05/07 12:23:33;;;;;;;2.92;0.63;;;;;;;;;;5068197;28;20131;-69
2023/05/07 12:26:02;;;;;;;0.40;0.40;;;;;;;;;;5069856;28;20135;-69
2023/05/07 12:28:38;;;;;;;1.10;1.00;;;;;;;;;;5070094;28;20581;-69
2023/05/07 12:31:07;;;;;;;0.85;0.80;;;;;;;;;;5069577;28;20048;-69
2023/05/07 12:33:36;;;;;;;1.15;0.70;;;;;;;;;;5070158;28;20058;-69
2023/05/07 12:36:07;;;;;;;1.20;0.50;;;;;;;;;;5065740;28;20056;-69
2023/05/07 12:38:40;;;;;;;0.98;0.77;;;;;;;;;;5065056;28;20043;-67
2023/05/07 12:41:09;;;;;;;1.33;0.80;;;;;;;;;;5056120;28;20079;-67
2023/05/07 12:43:38;;;;;;;1.58;0.52;;;;;;;;;;5066858;28;20063;-67
2023/05/07 12:46:07;;;;;;;3.08;0.55;;;;;;;;;;5066905;28;20097;-67
2023/05/07 12:48:38;;;;;;;0.60;0.50;;;;;;;;;;5066654;28;20054;-67
2023/05/07 12:51:08;;;;;;;0.77;0.57;;;;;;;;;;5060023;28;20052;-66
2023/05/07 12:53:42;;;;;;;0.90;0.35;;;;;;;;;;5064126;28;20063;-67
2023/05/07 12:56:11;;;;;;;0.22;0.22;;;;;;;;;;5067120;28;20046;-67
2023/05/07 12:58:40;;;;;;;1.02;0.43;;;;;;;;;;5066466;28;20055;-67
2023/05/07 13:01:09;;;;;;;0.65;0.47;;;;;;;;;;5057177;28;20080;-67
2023/05/07 13:03:38;;;;;;;0.95;0.65;;;;;;;;;;5069368;28;20091;-67
2023/05/07 13:06:09;;;;;;;0.50;0.43;;;;;;;;;;5067019;28;20056;-67
2023/05/07 13:08:39;;;;;;;0.73;0.38;;;;;;;;;;5064362;28;20053;-67
2023/05/07 13:11:10;;;;;;;0.88;0.43;;;;;;;;;;5072268;28;20052;-68
2023/05/07 13:13:40;;;;;;;0.50;0.50;;;;;;;;;;5069875;28;20059;-68
2023/05/07 13:16:09;;;;;;;1.05;0.50;;;;;;;;;;5071788;28;20123;-70
2023/05/07 13:18:38;;;;;;;2.85;0.70;;;;;;;;;;5074304;28;20402;-68
2023/05/07 13:21:06;;;;;;;0.63;0.50;;;;;;;;;;5071968;28;20079;-74
2023/05/07 13:23:35;;;;;;;1.17;0.80;;;;;;;;;;5061550;28;20139;-71
2023/05/07 13:26:03;;;;;;;1.08;0.60;;;;;;;;;;5066590;28;20425;-69
2023/05/07 13:28:48;;;;;;;1.30;0.80;;;;;;;;;;5073941;28;20056;-70
2023/05/07 13:31:16;;;;;;;1.17;0.70;;;;;;;;;;5070103;28;20053;-69
2023/05/07 13:33:45;;;;;;;0.82;0.70;;;;;;;;;;5073357;28;20136;-69
2023/05/07 13:36:13;;;;;;;0.52;0.47;;;;;;;;;;5071085;28;20055;-71
2023/05/07 13:38:41;;;;;;;0.98;0.50;;;;;;;;;;5065692;28;20051;-70
2023/05/07 13:41:10;;;;;;;1.17;0.70;;;;;;;;;;5061282;28;20048;-70
2023/05/07 13:43:38;;;;;;;0.85;0.63;;;;;;;;;;5060157;28;20059;-69
2023/05/07 13:46:08;;;;;;;1.52;0.95;;;;;;;;;;5071033;28;20049;-69
2023/05/07 13:48:37;;;;;;;3.38;1.50;;;;;;;;;;5064235;28;20103;-69
2023/05/07 13:51:05;;;;;;;0.70;0.60;;;;;;;;;;5066441;28;20448;-68
2023/05/07 13:53:33;;;;;;;1.02;0.60;;;;;;;;;;5072932;28;20087;-69
2023/05/07 13:56:04;;;;;;;1.10;0.75;;;;;;;;;;5059321;28;20493;-68
2023/05/07 13:58:32;;;;;;;0.98;0.90;;;;;;;;;;5072979;28;20520;-69
2023/05/07 14:01:01;;;;;;;2.13;0.63;;;;;;;;;;5072332;28;20128;-69
2023/05/07 14:03:31;;;;;;;0.40;0.40;;;;;;;;;;5068464;28;20052;-68
2023/05/07 14:06:01;;;;;;;0.95;0.70;;;;;;;;;;5072508;28;20075;-69
2023/05/07 14:08:29;;;;;;;1.85;0.73;;;;;;;;;;5071795;28;20051;-69
2023/05/07 14:10:59;;;;;;;0.77;0.77;;;;;;;;;;5068403;28;20082;-69
2023/05/07 14:13:30;;;;;;;0.90;0.65;;;;;;;;;;5072518;28;20122;-69
2023/05/07 14:15:58;;;;;;;0.95;0.75;;;;;;;;;;5067122;28;20501;-69
2023/05/07 14:18:28;;;;;;;2.92;0.60;;;;;;;;;;5063211;28;20378;-69
2023/05/07 14:20:58;;;;;;;1.10;0.73;;;;;;;;;;5070555;28;20437;-69
2023/05/07 14:23:27;;;;;;;1.17;0.63;;;;;;;;;;5066063;28;20134;-69
2023/05/07 14:25:57;;;;;;;0.63;0.60;;;;;;;;;;5072007;28;20059;-69
2023/05/07 14:28:25;;;;;;;0.90;0.73;;;;;;;;;;5072844;28;20080;-68
2023/05/07 14:30:53;;;;;;;1.98;1.00;;;;;;;;;;5063919;28;20080;-70
2023/05/07 14:33:22;;;;;;;1.38;0.88;;;;;;;;;;5069411;28;20548;-71
2023/05/07 14:35:50;;;;;;;1.02;0.70;;;;;;;;;;5066229;28;20484;-71
2023/05/07 14:38:20;;;;;;;2.42;1.08;;;;;;;;;;5066834;28;20055;-71
2023/05/07 14:40:48;;;;;;;7.60;1.23;;;;;;;;;;5059530;28;20145;-70
2023/05/07 14:43:17;;;;;;;3.08;1.27;;;;;;;;;;5072259;28;20098;-72
2023/05/07 14:45:45;;;;;;;5.38;1.20;;;;;;;;;;5071146;28;20127;-70
2023/05/07 14:48:14;;;;;;;0.82;0.73;;;;;;;;;;5070953;28;20041;-71
2023/05/07 14:50:43;;;;;;;1.65;0.90;;;;;;;;;;5071372;28;20410;-71
2023/05/07 14:53:11;;;;;;;1.13;0.80;;;;;;;;;;5066540;28;20127;-72
2023/05/07 14:55:41;;;;;;;1.27;0.80;;;;;;;;;;5071786;28;20070;-71
2023/05/07 14:58:10;;;;;;;1.55;0.90;;;;;;;;;;5072292;28;20098;-71